sensor_id;sensor_type;location;lat;lon;timestamp;pressure;altitude;pressure_sealevel;temperature;humidity
45113;BME280;30873;53.908;27.576;2022-12-24T00:05:08;1004.9;;;5.1;76.7
45113;BME280;30873;53.908;27.576;2022-12-24T00:09:54;1004.9;;;5.2;76.9
45113;BME280;30873;53.908;27.576;2022-12-24T00:14:34;1004.9;;;5.2;76.7
45113;BME280;30873;53.908;27.576;2022-12-24T00:19:32;1004.9;;;5.1;76.6
45113;BME280;30873;53.908;27.576;2022-12-24T00:24:24;1004.8;;;5;76.9
45113;BME280;30873;53.908;27.576;2022-12-24T00:30:06;1004.8;;;4.9;77.5
45113;BME280;30873;53.908;27.576;2022-12-24T00:35:06;1004.9;;;4.9;77.9
45113;BME280;30873;53.908;27.576;2022-12-24T00:39:52;1004.9;;;5;78
45113;BME280;30873;53.908;27.576;2022-12-24T00:44:58;1004.9;;;5;78.1
45113;BME280;30873;53.908;27.576;2022-12-24T00:49:32;1004.8;;;5;78.1
45113;BME280;30873;53.908;27.576;2022-12-24T00:55:08;1004.8;;;4.9;78.2
45113;BME280;30873;53.908;27.576;2022-12-24T01:00:06;1004.9;;;4.9;78.5
45113;BME280;30873;53.908;27.576;2022-12-24T01:04:56;1004.8;;;4.9;78.9
45113;BME280;30873;53.908;27.576;2022-12-24T01:09:58;1004.9;;;4.9;78.8
45113;BME280;30873;53.908;27.576;2022-12-24T01:14:42;1004.9;;;4.9;78.7
45113;BME280;30873;53.908;27.576;2022-12-24T01:20:13;1004.9;;;4.8;79.1
45113;BME280;30873;53.908;27.576;2022-12-24T01:25:10;1004.9;;;4.8;79.1
45113;BME280;30873;53.908;27.576;2022-12-24T01:29:26;1004.9;;;4.8;79.1
45113;BME280;30873;53.908;27.576;2022-12-24T01:35:02;1005;;;4.9;78.9
45113;BME280;30873;53.908;27.576;2022-12-24T01:39:58;1004.9;;;4.9;78.8
45113;BME280;30873;53.908;27.576;2022-12-24T01:45:41;1004.9;;;4.9;78.8
45113;BME280;30873;53.908;27.576;2022-12-24T01:50:12;1005;;;4.8;78.8
45113;BME280;30873;53.908;27.576;2022-12-24T01:54:35;1005;;;4.8;78.8
45113;BME280;30873;53.908;27.576;2022-12-24T01:59:24;1005.1;;;4.8;79
45113;BME280;30873;53.908;27.576;2022-12-24T02:05:13;1005.2;;;4.9;79
45113;BME280;30873;53.908;27.576;2022-12-24T02:10:07;1005.2;;;4.9;79
45113;BME280;30873;53.908;27.576;2022-12-24T02:15:11;1005.3;;;5;78.6
45113;BME280;30873;53.908;27.576;2022-12-24T02:20:03;1005.3;;;5;78.6
45113;BME280;30873;53.908;27.576;2022-12-24T02:25:14;1005.3;;;5;78.5
45113;BME280;30873;53.908;27.576;2022-12-24T02:29:47;1005.3;;;5.1;78.4
45113;BME280;30873;53.908;27.576;2022-12-24T02:34:59;1005.3;;;5.1;78.1
45113;BME280;30873;53.908;27.576;2022-12-24T02:39:47;1005.4;;;5.2;78.2
45113;BME280;30873;53.908;27.576;2022-12-24T02:44:36;1005.5;;;5.2;77.8
45113;BME280;30873;53.908;27.576;2022-12-24T02:49:54;1005.6;;;5;78.1
45113;BME280;30873;53.908;27.576;2022-12-24T02:54:24;1005.7;;;5.1;78.5
45113;BME280;30873;53.908;27.576;2022-12-24T03:00:07;1005.6;;;5.1;78.4
45113;BME280;30873;53.908;27.576;2022-12-24T03:04:47;1005.6;;;5.1;78.3
45113;BME280;30873;53.908;27.576;2022-12-24T03:09:27;1005.6;;;5.1;78.3
45113;BME280;30873;53.908;27.576;2022-12-24T03:14:38;1005.6;;;5.1;78.5
45113;BME280;30873;53.908;27.576;2022-12-24T03:20:00;1005.7;;;5.1;78.6
45113;BME280;30873;53.908;27.576;2022-12-24T03:25:08;1005.7;;;5.2;78.6
45113;BME280;30873;53.908;27.576;2022-12-24T03:29:26;1005.7;;;5.2;78.6
45113;BME280;30873;53.908;27.576;2022-12-24T03:34:46;1005.7;;;5.3;78.6
45113;BME280;30873;53.908;27.576;2022-12-24T03:39:34;1005.7;;;5.3;78.5
45113;BME280;30873;53.908;27.576;2022-12-24T03:44:24;1005.7;;;5.4;78.3
45113;BME280;30873;53.908;27.576;2022-12-24T03:50:12;1005.9;;;5.4;78.2
45113;BME280;30873;53.908;27.576;2022-12-24T03:54:46;1005.9;;;5.4;78.2
45113;BME280;30873;53.908;27.576;2022-12-24T03:59:56;1005.9;;;5.3;78.3
45113;BME280;30873;53.908;27.576;2022-12-24T04:05:00;1005.9;;;5.3;78.5
45113;BME280;30873;53.908;27.576;2022-12-24T04:09:58;1005.9;;;5.3;78.5
45113;BME280;30873;53.908;27.576;2022-12-24T04:15:10;1005.9;;;5.3;78.7
45113;BME280;30873;53.908;27.576;2022-12-24T04:19:58;1005.9;;;5.3;78.7
45113;BME280;30873;53.908;27.576;2022-12-24T04:24:34;1006;;;5.3;78.7
45113;BME280;30873;53.908;27.576;2022-12-24T04:29:34;1006;;;5.2;79
45113;BME280;30873;53.908;27.576;2022-12-24T04:34:24;1006.1;;;5.2;79
45113;BME280;30873;53.908;27.576;2022-12-24T04:40:08;1006;;;5.2;79.1
45113;BME280;30873;53.908;27.576;2022-12-24T04:44:46;1006;;;5.2;79.2
45113;BME280;30873;53.908;27.576;2022-12-24T04:49:56;1006.1;;;5.3;79.1
45113;BME280;30873;53.908;27.576;2022-12-24T04:54:58;1006.2;;;5.3;79.1
45113;BME280;30873;53.908;27.576;2022-12-24T04:59:48;1006.3;;;5.2;78.9
45113;BME280;30873;53.908;27.576;2022-12-24T05:05:10;1006.4;;;5.4;78.7
45113;BME280;30873;53.908;27.576;2022-12-24T05:09:44;1006.4;;;5.4;78.7
45113;BME280;30873;53.908;27.576;2022-12-24T05:14:34;1006.4;;;5.3;78.6
45113;BME280;30873;53.908;27.576;2022-12-24T05:19:24;1006.4;;;5.4;78.4
45113;BME280;30873;53.908;27.576;2022-12-24T05:24:36;1006.4;;;5.4;78.4
45113;BME280;30873;53.908;27.576;2022-12-24T05:30:10;1006.4;;;5.4;78.2
45113;BME280;30873;53.908;27.576;2022-12-24T05:34:24;1006.4;;;5.4;78.2
45113;BME280;30873;53.908;27.576;2022-12-24T05:39:56;1006.5;;;5.5;78.2
45113;BME280;30873;53.908;27.576;2022-12-24T05:45:00;1006.6;;;5.5;78
45113;BME280;30873;53.908;27.576;2022-12-24T05:49:36;1006.6;;;5.5;77.9
45113;BME280;30873;53.908;27.576;2022-12-24T05:55:10;1006.8;;;5.4;77.9
45113;BME280;30873;53.908;27.576;2022-12-24T05:59:58;1006.8;;;5.4;77.9
45113;BME280;30873;53.908;27.576;2022-12-24T06:04:46;1006.9;;;5.5;78
45113;BME280;30873;53.908;27.576;2022-12-24T06:09:46;1007;;;5.5;78
45113;BME280;30873;53.908;27.576;2022-12-24T06:14:34;1007;;;5.5;77.9
45113;BME280;30873;53.908;27.576;2022-12-24T06:20:12;1007.2;;;5.5;77.6
45113;BME280;30873;53.908;27.576;2022-12-24T06:24:24;1007.2;;;5.5;77.6
45113;BME280;30873;53.908;27.576;2022-12-24T06:29:56;1007.2;;;5.5;77.6
45113;BME280;30873;53.908;27.576;2022-12-24T06:34:26;1007.3;;;5.5;77.5
45113;BME280;30873;53.908;27.576;2022-12-24T06:39:46;1007.4;;;5.5;77.6
45113;BME280;30873;53.908;27.576;2022-12-24T06:45:08;1007.5;;;5.5;77.6
45113;BME280;30873;53.908;27.576;2022-12-24T06:50:00;1007.6;;;5.5;77.6
45113;BME280;30873;53.908;27.576;2022-12-24T06:54:34;1007.6;;;5.5;77.7
45113;BME280;30873;53.908;27.576;2022-12-24T06:59:36;1007.7;;;5.5;77.7
45113;BME280;30873;53.908;27.576;2022-12-24T07:04:38;1007.7;;;5.5;77.6
45113;BME280;30873;53.908;27.576;2022-12-24T07:10:05;1007.8;;;5.6;77.4
45113;BME280;30873;53.908;27.576;2022-12-24T07:14:24;1007.8;;;5.6;77.1
45113;BME280;30873;53.908;27.576;2022-12-24T07:19:24;1007.9;;;5.6;77
45113;BME280;30873;53.908;27.576;2022-12-24T07:25:00;1007.9;;;5.6;76.8
45113;BME280;30873;53.908;27.576;2022-12-24T07:29:32;1008;;;5.7;76.7
45113;BME280;30873;53.908;27.576;2022-12-24T07:35:00;1008.1;;;5.6;76.4
45113;BME280;30873;53.908;27.576;2022-12-24T07:39:46;1008.1;;;5.7;76.5
45113;BME280;30873;53.908;27.576;2022-12-24T07:44:24;1008.2;;;5.7;76.2
45113;BME280;30873;53.908;27.576;2022-12-24T07:49:48;1008.2;;;5.8;75.9
45113;BME280;30873;53.908;27.576;2022-12-24T07:55:12;1008.3;;;5.8;75.6
45113;BME280;30873;53.908;27.576;2022-12-24T08:00:10;1008.4;;;5.8;75.3
45113;BME280;30873;53.908;27.576;2022-12-24T08:04:48;1008.4;;;5.8;75.3
45113;BME280;30873;53.908;27.576;2022-12-24T08:09:46;1008.5;;;5.8;75.2
45113;BME280;30873;53.908;27.576;2022-12-24T08:14:24;1008.5;;;5.8;75.1
45113;BME280;30873;53.908;27.576;2022-12-24T08:19:24;1008.6;;;5.9;74.8
45113;BME280;30873;53.908;27.576;2022-12-24T08:24:48;1008.6;;;5.9;74.5
45113;BME280;30873;53.908;27.576;2022-12-24T08:30:02;1008.7;;;6;74.3
45113;BME280;30873;53.908;27.576;2022-12-24T08:34:46;1008.7;;;6;74.1
45113;BME280;30873;53.908;27.576;2022-12-24T08:40:08;1008.8;;;6.1;73.9
45113;BME280;30873;53.908;27.576;2022-12-24T08:45:08;1008.8;;;6.1;73.5
45113;BME280;30873;53.908;27.576;2022-12-24T08:50:08;1008.8;;;6.2;73.6
45113;BME280;30873;53.908;27.576;2022-12-24T08:54:34;1008.9;;;6.3;73
45113;BME280;30873;53.908;27.576;2022-12-24T08:59:24;1008.9;;;6.1;73
45113;BME280;30873;53.908;27.576;2022-12-24T09:04:24;1009;;;6.1;73.3
45113;BME280;30873;53.908;27.576;2022-12-24T09:09:24;1009.1;;;6.1;73
45113;BME280;30873;53.908;27.576;2022-12-24T09:14:26;1009.1;;;6.2;73.1
45113;BME280;30873;53.908;27.576;2022-12-24T09:20:08;1009.2;;;6.3;72.3
45113;BME280;30873;53.908;27.576;2022-12-24T09:24:58;1009.2;;;6.3;72.1
45113;BME280;30873;53.908;27.576;2022-12-24T09:29:46;1009.3;;;6.3;71.9
45113;BME280;30873;53.908;27.576;2022-12-24T09:34:58;1009.3;;;6.5;71.8
45113;BME280;30873;53.908;27.576;2022-12-24T09:40:10;1009.4;;;6.7;71.1
45113;BME280;30873;53.908;27.576;2022-12-24T09:44:50;1009.4;;;6.6;70.5
45113;BME280;30873;53.908;27.576;2022-12-24T09:49:36;1009.4;;;6.6;70.6
45113;BME280;30873;53.908;27.576;2022-12-24T09:54:49;1009.5;;;6.6;70.2
45113;BME280;30873;53.908;27.576;2022-12-24T09:59:30;1009.6;;;6.5;70.2
45113;BME280;30873;53.908;27.576;2022-12-24T10:05:04;1009.6;;;6.5;70.3
45113;BME280;30873;53.908;27.576;2022-12-24T10:10:05;1009.6;;;6.8;70.3
45113;BME280;30873;53.908;27.576;2022-12-24T10:14:26;1009.7;;;6.9;69.5
45113;BME280;30873;53.908;27.576;2022-12-24T10:19:40;1009.7;;;6.9;69.3
45113;BME280;30873;53.908;27.576;2022-12-24T10:25:13;1009.9;;;6.8;69.4
45113;BME280;30873;53.908;27.576;2022-12-24T10:30:12;1009.9;;;6.8;69.4
45113;BME280;30873;53.908;27.576;2022-12-24T10:34:35;1010;;;6.9;69.2
45113;BME280;30873;53.908;27.576;2022-12-24T10:39:25;1010.1;;;6.9;68.9
45113;BME280;30873;53.908;27.576;2022-12-24T10:45:01;1010.2;;;6.9;68.9
45113;BME280;30873;53.908;27.576;2022-12-24T10:49:38;1010.2;;;7.2;68.2
45113;BME280;30873;53.908;27.576;2022-12-24T10:55:04;1010.3;;;7.5;67.1
45113;BME280;30873;53.908;27.576;2022-12-24T11:00:17;1010.4;;;8.5;65
45113;BME280;30873;53.908;27.576;2022-12-24T11:04:58;1010.4;;;8.5;65
45113;BME280;30873;53.908;27.576;2022-12-24T11:09:25;1010.4;;;8.8;63.6
45113;BME280;30873;53.908;27.576;2022-12-24T11:15:14;1010.4;;;9.5;63.6
45113;BME280;30873;53.908;27.576;2022-12-24T11:20:09;1010.3;;;12.3;57.6
45113;BME280;30873;53.908;27.576;2022-12-24T11:24:36;1010.4;;;14.7;52.2
45113;BME280;30873;53.908;27.576;2022-12-24T11:29:48;1010.4;;;15;48.7
45113;BME280;30873;53.908;27.576;2022-12-24T11:34:27;1010.5;;;13.2;50.4
45113;BME280;30873;53.908;27.576;2022-12-24T11:39:57;1010.7;;;11;53.8
45113;BME280;30873;53.908;27.576;2022-12-24T11:45:16;1010.9;;;8.3;60.7
45113;BME280;30873;53.908;27.576;2022-12-24T11:50:25;1010.9;;;8.3;60.7
45113;BME280;30873;53.908;27.576;2022-12-24T11:54:31;1010.9;;;7.7;62.6
45113;BME280;30873;53.908;27.576;2022-12-24T11:59:33;1011;;;7.3;63.6
45113;BME280;30873;53.908;27.576;2022-12-24T12:05:07;1011.2;;;7;63.9
45113;BME280;30873;53.908;27.576;2022-12-24T12:09:54;1011.2;;;6.6;64.1
45113;BME280;30873;53.908;27.576;2022-12-24T12:14:26;1011.3;;;6.4;64.1
45113;BME280;30873;53.908;27.576;2022-12-24T12:19:40;1011.3;;;6.3;64.7
45113;BME280;30873;53.908;27.576;2022-12-24T12:24:35;1011.3;;;6.5;65.1
45113;BME280;30873;53.908;27.576;2022-12-24T12:29:26;1011.3;;;8.2;62.5
45113;BME280;30873;53.908;27.576;2022-12-24T12:35:12;1011.4;;;9.7;56.9
45113;BME280;30873;53.908;27.576;2022-12-24T12:39:42;1011.5;;;9.2;56.1
45113;BME280;30873;53.908;27.576;2022-12-24T12:44:43;1011.6;;;7.7;59
45113;BME280;30873;53.908;27.576;2022-12-24T12:49:35;1011.7;;;6.9;61.3
45113;BME280;30873;53.908;27.576;2022-12-24T12:55:03;1011.7;;;6.3;62.9
45113;BME280;30873;53.908;27.576;2022-12-24T12:59:58;1011.8;;;6;63.5
45113;BME280;30873;53.908;27.576;2022-12-24T13:04:30;1011.9;;;5.7;64.2
45113;BME280;30873;53.908;27.576;2022-12-24T13:10:02;1012;;;5.5;64.8
45113;BME280;30873;53.908;27.576;2022-12-24T13:14:50;1012.1;;;5.5;64.8
45113;BME280;30873;53.908;27.576;2022-12-24T13:19:40;1012.2;;;5.4;64.7
45113;BME280;30873;53.908;27.576;2022-12-24T13:25:17;1012.3;;;5.1;65
45113;BME280;30873;53.908;27.576;2022-12-24T13:30:30;1012.3;;;5;65.2
45113;BME280;30873;53.908;27.576;2022-12-24T13:34:33;1012.4;;;4.8;65.3
45113;BME280;30873;53.908;27.576;2022-12-24T13:40:01;1012.5;;;4.7;65.4
45113;BME280;30873;53.908;27.576;2022-12-24T13:45:17;1012.5;;;4.7;65.3
45113;BME280;30873;53.908;27.576;2022-12-24T13:49:45;1012.6;;;4.6;65.2
45113;BME280;30873;53.908;27.576;2022-12-24T13:54:35;1012.7;;;4.6;64.9
45113;BME280;30873;53.908;27.576;2022-12-24T13:59:46;1012.7;;;4.6;65
45113;BME280;30873;53.908;27.576;2022-12-24T14:04:59;1012.8;;;4.6;65.1
45113;BME280;30873;53.908;27.576;2022-12-24T14:09:24;1012.9;;;4.6;65.4
45113;BME280;30873;53.908;27.576;2022-12-24T14:15:43;1013.1;;;4.6;64.6
45113;BME280;30873;53.908;27.576;2022-12-24T14:20:06;1013.1;;;4.5;64.4
45113;BME280;30873;53.908;27.576;2022-12-24T14:24:45;1013.2;;;4.5;64.1
45113;BME280;30873;53.908;27.576;2022-12-24T14:29:57;1013.3;;;4.4;64
45113;BME280;30873;53.908;27.576;2022-12-24T14:35:04;1013.4;;;4.4;64.2
45113;BME280;30873;53.908;27.576;2022-12-24T14:39:56;1013.5;;;4.4;63.7
45113;BME280;30873;53.908;27.576;2022-12-24T14:45:11;1013.6;;;4.3;63.5
45113;BME280;30873;53.908;27.576;2022-12-24T14:49:36;1013.8;;;4.2;64
45113;BME280;30873;53.908;27.576;2022-12-24T14:54:56;1013.9;;;4;64.1
45113;BME280;30873;53.908;27.576;2022-12-24T14:59:25;1014;;;3.8;64.2
45113;BME280;30873;53.908;27.576;2022-12-24T15:05:10;1014.1;;;3.7;64.2
45113;BME280;30873;53.908;27.576;2022-12-24T15:10:07;1014.1;;;3.6;64
45113;BME280;30873;53.908;27.576;2022-12-24T15:14:41;1014.1;;;3.7;63.7
45113;BME280;30873;53.908;27.576;2022-12-24T15:19:31;1014.3;;;3.7;64
45113;BME280;30873;53.908;27.576;2022-12-24T15:24:54;1014.3;;;3.8;64
45113;BME280;30873;53.908;27.576;2022-12-24T15:29:56;1014.4;;;3.8;64.1
45113;BME280;30873;53.908;27.576;2022-12-24T15:35:00;1014.5;;;3.9;64.2
45113;BME280;30873;53.908;27.576;2022-12-24T15:39:45;1014.5;;;3.8;64.3
45113;BME280;30873;53.908;27.576;2022-12-24T15:44:59;1014.5;;;3.8;65.1
45113;BME280;30873;53.908;27.576;2022-12-24T15:50:13;1014.7;;;3.7;64.8
45113;BME280;30873;53.908;27.576;2022-12-24T15:55:27;1014.7;;;3.6;64.6
45113;BME280;30873;53.908;27.576;2022-12-24T15:59:49;1014.7;;;3.6;64.6
45113;BME280;30873;53.908;27.576;2022-12-24T16:04:44;1014.8;;;3.5;64.7
45113;BME280;30873;53.908;27.576;2022-12-24T16:09:38;1014.8;;;3.5;63.5
45113;BME280;30873;53.908;27.576;2022-12-24T16:15:11;1015;;;3.4;63.1
45113;BME280;30873;53.908;27.576;2022-12-24T16:20:15;1015;;;3.5;63.1
45113;BME280;30873;53.908;27.576;2022-12-24T16:24:44;1015.1;;;3.4;63
45113;BME280;30873;53.908;27.576;2022-12-24T16:29:54;1015.2;;;3.4;63.1
45113;BME280;30873;53.908;27.576;2022-12-24T16:34:59;1015.3;;;3.4;63.1
45113;BME280;30873;53.908;27.576;2022-12-24T16:40:11;1015.3;;;3.4;62.8
45113;BME280;30873;53.908;27.576;2022-12-24T16:45:08;1015.4;;;3.4;63.2
45113;BME280;30873;53.908;27.576;2022-12-24T16:49:25;1015.4;;;3.4;62.9
45113;BME280;30873;53.908;27.576;2022-12-24T16:54:24;1015.5;;;3.4;62.7
45113;BME280;30873;53.908;27.576;2022-12-24T16:59:24;1015.5;;;3.5;62.9
45113;BME280;30873;53.908;27.576;2022-12-24T17:05:09;1015.5;;;3.5;62.7
45113;BME280;30873;53.908;27.576;2022-12-24T17:10:07;1015.6;;;3.6;62.8
45113;BME280;30873;53.908;27.576;2022-12-24T17:14:46;1015.7;;;3.7;62.5
45113;BME280;30873;53.908;27.576;2022-12-24T17:19:57;1015.7;;;3.7;62.5
45113;BME280;30873;53.908;27.576;2022-12-24T17:24:45;1015.8;;;3.7;62.2
45113;BME280;30873;53.908;27.576;2022-12-24T17:30:08;1015.9;;;3.6;62.2
45113;BME280;30873;53.908;27.576;2022-12-24T17:35:07;1016;;;3.5;62.2
45113;BME280;30873;53.908;27.576;2022-12-24T17:39:58;1016;;;3.4;62.5
45113;BME280;30873;53.908;27.576;2022-12-24T17:44:42;1016.1;;;3.5;62.5
45113;BME280;30873;53.908;27.576;2022-12-24T17:49:37;1016.1;;;3.5;62
45113;BME280;30873;53.908;27.576;2022-12-24T17:55:08;1016.1;;;3.6;61.6
45113;BME280;30873;53.908;27.576;2022-12-24T18:00:09;1016.1;;;3.6;61.9
45113;BME280;30873;53.908;27.576;2022-12-24T18:04:44;1016.2;;;3.6;62
45113;BME280;30873;53.908;27.576;2022-12-24T18:09:48;1016.2;;;3.4;61.9
45113;BME280;30873;53.908;27.576;2022-12-24T18:14:52;1016.2;;;3.4;61.9
45113;BME280;30873;53.908;27.576;2022-12-24T18:20:02;1016.3;;;3.3;61.2
45113;BME280;30873;53.908;27.576;2022-12-24T18:25:07;1016.5;;;3.1;61.1
45113;BME280;30873;53.908;27.576;2022-12-24T18:29:46;1016.6;;;3;61.4
45113;BME280;30873;53.908;27.576;2022-12-24T18:34:44;1016.7;;;2.9;61.5
45113;BME280;30873;53.908;27.576;2022-12-24T18:39:24;1016.7;;;2.9;61.5
45113;BME280;30873;53.908;27.576;2022-12-24T18:45:05;1016.7;;;2.7;61.8
45113;BME280;30873;53.908;27.576;2022-12-24T18:50:05;1016.7;;;2.6;62.2
45113;BME280;30873;53.908;27.576;2022-12-24T18:54:34;1016.8;;;2.5;62.5
45113;BME280;30873;53.908;27.576;2022-12-24T18:59:54;1016.8;;;2.5;63
45113;BME280;30873;53.908;27.576;2022-12-24T19:04:54;1016.9;;;2.6;63
45113;BME280;30873;53.908;27.576;2022-12-24T19:10:03;1017;;;2.6;62.9
45113;BME280;30873;53.908;27.576;2022-12-24T19:15:04;1017.2;;;2.7;62.8
45113;BME280;30873;53.908;27.576;2022-12-24T19:19:34;1017.3;;;2.6;62.5
45113;BME280;30873;53.908;27.576;2022-12-24T19:24:34;1017.4;;;2.6;62.8
45113;BME280;30873;53.908;27.576;2022-12-24T19:29:36;1017.5;;;2.6;62.8
45113;BME280;30873;53.908;27.576;2022-12-24T19:35:03;1017.5;;;2.6;62.7
45113;BME280;30873;53.908;27.576;2022-12-24T19:40:00;1017.6;;;2.6;62.5
45113;BME280;30873;53.908;27.576;2022-12-24T19:44:50;1017.5;;;2.7;62.7
45113;BME280;30873;53.908;27.576;2022-12-24T19:49:56;1017.6;;;2.6;62.9
45113;BME280;30873;53.908;27.576;2022-12-24T19:54:24;1017.7;;;2.6;63.1
45113;BME280;30873;53.908;27.576;2022-12-24T20:00:09;1017.7;;;2.7;62.6
45113;BME280;30873;53.908;27.576;2022-12-24T20:04:24;1017.7;;;2.7;62.5
45113;BME280;30873;53.908;27.576;2022-12-24T20:09:44;1017.8;;;2.7;62.6
45113;BME280;30873;53.908;27.576;2022-12-24T20:14:44;1017.9;;;2.7;62.6
45113;BME280;30873;53.908;27.576;2022-12-24T20:19:24;1018;;;2.7;62.3
45113;BME280;30873;53.908;27.576;2022-12-24T20:25:07;1018;;;2.6;62
45113;BME280;30873;53.908;27.576;2022-12-24T20:29:50;1018.1;;;2.6;62
45113;BME280;30873;53.908;27.576;2022-12-24T20:34:24;1018.2;;;2.4;61.9
45113;BME280;30873;53.908;27.576;2022-12-24T20:40:07;1018.2;;;2.3;62.3
45113;BME280;30873;53.908;27.576;2022-12-24T20:44:36;1018.1;;;2.3;62.2
45113;BME280;30873;53.908;27.576;2022-12-24T20:50:09;1018.2;;;2.3;62.2
45113;BME280;30873;53.908;27.576;2022-12-24T20:54:34;1018.2;;;2.2;62.1
45113;BME280;30873;53.908;27.576;2022-12-24T20:59:50;1018.2;;;2;62.3
45113;BME280;30873;53.908;27.576;2022-12-24T21:04:25;1018.4;;;2;62.8
45113;BME280;30873;53.908;27.576;2022-12-24T21:09:50;1018.3;;;2.1;62.5
45113;BME280;30873;53.908;27.576;2022-12-24T21:15:07;1018.3;;;2.1;62.7
45113;BME280;30873;53.908;27.576;2022-12-24T21:19:36;1018.5;;;2.2;63
45113;BME280;30873;53.908;27.576;2022-12-24T21:24:40;1018.5;;;2.3;62.8
45113;BME280;30873;53.908;27.576;2022-12-24T21:29:56;1018.6;;;2.2;62.7
45113;BME280;30873;53.908;27.576;2022-12-24T21:34:50;1018.7;;;2.2;62.8
45113;BME280;30873;53.908;27.576;2022-12-24T21:40:07;1018.8;;;1.9;62.9
45113;BME280;30873;53.908;27.576;2022-12-24T21:44:58;1018.8;;;1.9;63.1
45113;BME280;30873;53.908;27.576;2022-12-24T21:49:34;1019;;;2;63.1
45113;BME280;30873;53.908;27.576;2022-12-24T21:54:24;1019;;;2;62.8
45113;BME280;30873;53.908;27.576;2022-12-24T21:59:55;1019.1;;;2;62.8
45113;BME280;30873;53.908;27.576;2022-12-24T22:05:02;1019.1;;;2;62.6
45113;BME280;30873;53.908;27.576;2022-12-24T22:09:56;1019.1;;;1.9;62.9
45113;BME280;30873;53.908;27.576;2022-12-24T22:14:44;1019.2;;;2;62.8
45113;BME280;30873;53.908;27.576;2022-12-24T22:19:52;1019.3;;;1.9;62.8
45113;BME280;30873;53.908;27.576;2022-12-24T22:24:54;1019.3;;;1.9;62.9
45113;BME280;30873;53.908;27.576;2022-12-24T22:30:03;1019.2;;;1.8;63
45113;BME280;30873;53.908;27.576;2022-12-24T22:34:24;1019.2;;;1.6;63
45113;BME280;30873;53.908;27.576;2022-12-24T22:39:54;1019.2;;;1.5;62.9
45113;BME280;30873;53.908;27.576;2022-12-24T22:44:38;1019.4;;;1.4;63.2
45113;BME280;30873;53.908;27.576;2022-12-24T22:49:24;1019.4;;;1.5;63.4
45113;BME280;30873;53.908;27.576;2022-12-24T22:55:05;1019.2;;;1.6;63.2
45113;BME280;30873;53.908;27.576;2022-12-24T22:59:44;1019.3;;;1.5;63.3
45113;BME280;30873;53.908;27.576;2022-12-24T23:04:24;1019.3;;;1.5;63.4
45113;BME280;30873;53.908;27.576;2022-12-24T23:09:50;1019.4;;;1.4;63.5
45113;BME280;30873;53.908;27.576;2022-12-24T23:14:52;1019.5;;;1.4;63.8
45113;BME280;30873;53.908;27.576;2022-12-24T23:19:50;1019.6;;;1.5;63.6
45113;BME280;30873;53.908;27.576;2022-12-24T23:24:25;1019.6;;;1.4;63.5
45113;BME280;30873;53.908;27.576;2022-12-24T23:29:42;1019.6;;;1.2;63.9
45113;BME280;30873;53.908;27.576;2022-12-24T23:34:25;1019.6;;;1.2;64.2
45113;BME280;30873;53.908;27.576;2022-12-24T23:39:32;1019.7;;;1.2;64.5
45113;BME280;30873;53.908;27.576;2022-12-24T23:45:03;1019.7;;;1.3;64.1
45113;BME280;30873;53.908;27.576;2022-12-24T23:49:44;1019.7;;;1.2;64.3
45113;BME280;30873;53.908;27.576;2022-12-24T23:54:32;1019.6;;;1.2;64.1
45113;BME280;30873;53.908;27.576;2022-12-24T23:59:52;1019.6;;;1.1;64
